createdAt,value
2018-05-01T00:00:38.268Z,12.43
2018-05-01T00:03:09.503Z,10.13
2018-05-01T00:05:40.276Z,11.07
2018-05-01T00:08:11.233Z,10.88
2018-05-01T00:10:42.200Z,10.98
2018-05-01T00:13:13.314Z,10.02
2018-05-01T00:15:44.171Z,11.90
2018-05-01T00:18:15.721Z,9.07
2018-05-01T00:20:46.424Z,12.02
2018-05-01T00:23:17.240Z,8.52
2018-05-01T00:25:47.878Z,9.13
2018-05-01T00:28:18.844Z,9.86
2018-05-01T00:30:49.538Z,6.60
2018-05-01T00:33:20.266Z,8.13
2018-05-01T00:35:51.192Z,9.18
2018-05-01T00:38:21.812Z,10.82
2018-05-01T00:40:52.574Z,10.15
2018-05-01T00:43:23.647Z,8.35
2018-05-01T00:45:54.329Z,6.43
2018-05-01T00:48:25.242Z,6.50
2018-05-01T00:50:55.794Z,3.94
2018-05-01T00:53:26.557Z,7.50
2018-05-01T00:55:57.263Z,5.70
2018-05-01T00:58:28.160Z,8.52
2018-05-01T01:00:59.175Z,5.65
2018-05-01T01:03:30.155Z,4.93
2018-05-01T01:06:00.721Z,4.92
2018-05-01T01:08:31.467Z,6.82
2018-05-01T01:11:02.243Z,4.43
2018-05-01T01:13:33.210Z,5.03
2018-05-01T01:16:04.487Z,4.80
2018-05-01T01:18:35.822Z,7.55
2018-05-01T01:21:06.442Z,6.57
2018-05-01T01:23:37.244Z,9.48
2018-05-01T01:26:08.186Z,7.00
2018-05-01T01:28:39.261Z,5.85
2018-05-01T01:31:10.162Z,5.22
2018-05-01T01:33:41.303Z,5.12
2018-05-01T01:36:10.774Z,3.83
2018-05-01T01:38:41.102Z,8.46
2018-05-01T01:41:10.475Z,6.40
2018-05-01T01:43:39.797Z,5.95
2018-05-01T01:46:09.298Z,8.27
2018-05-01T01:48:36.996Z,6.63
2018-05-01T01:51:04.593Z,6.03
2018-05-01T01:53:32.499Z,5.43
2018-05-01T01:56:00.501Z,9.43
2018-05-01T01:58:29.008Z,8.90
2018-05-01T02:00:56.632Z,8.97
2018-05-01T02:03:24.614Z,10.33
2018-05-01T02:05:52.551Z,7.63
2018-05-01T02:08:20.436Z,8.90
2018-05-01T02:10:48.363Z,6.35
2018-05-01T02:13:16.004Z,7.47
2018-05-01T02:15:43.616Z,8.00
2018-05-01T02:18:11.563Z,9.53
2018-05-01T02:20:39.829Z,8.23
2018-05-01T02:23:07.482Z,5.50
2018-05-01T02:25:35.484Z,6.63
2018-05-01T02:28:03.382Z,5.65
2018-05-01T02:30:31.004Z,4.87
2018-05-01T02:32:58.956Z,6.43
2018-05-01T02:35:26.567Z,5.80
2018-05-01T02:37:54.500Z,9.73
2018-05-01T02:40:22.475Z,9.20
2018-05-01T02:42:50.370Z,4.43
2018-05-01T02:45:18.274Z,6.55
2018-05-01T02:47:46.316Z,9.53
2018-05-01T02:50:13.907Z,9.60
2018-05-01T02:52:41.513Z,7.17
2018-05-01T02:55:09.189Z,7.17
2018-05-01T02:57:36.806Z,7.77
2018-05-01T03:00:04.459Z,9.83
2018-05-01T03:02:32.438Z,6.23
2018-05-01T03:05:00.330Z,7.25
2018-05-01T03:07:27.910Z,8.63
2018-05-01T03:09:55.838Z,9.17
2018-05-01T03:12:23.471Z,11.20
2018-05-01T03:14:51.424Z,11.77
2018-05-01T03:17:19.393Z,10.55
2018-05-01T03:19:47.288Z,8.05
2018-05-01T03:22:15.561Z,13.40
2018-05-01T03:24:43.884Z,9.97
2018-05-01T03:27:11.495Z,11.37
2018-05-01T03:29:39.399Z,10.73
2018-05-01T03:32:07.614Z,13.75
2018-05-01T03:34:35.230Z,10.30
2018-05-01T03:37:02.880Z,8.90
2018-05-01T03:39:30.528Z,8.80
2018-05-01T03:41:58.148Z,9.83
2018-05-01T03:44:27.807Z,9.32
2018-05-01T03:46:57.462Z,9.10
2018-05-01T03:49:26.722Z,9.45
2018-05-01T03:51:56.310Z,11.60
2018-05-01T03:54:23.964Z,6.27
2018-05-01T03:56:51.584Z,8.07
2018-05-01T03:59:19.461Z,5.03
2018-05-01T04:01:47.450Z,8.18
2018-05-01T04:04:16.782Z,6.37
2018-05-01T04:06:44.525Z,7.57
2018-05-01T04:09:12.610Z,6.35
2018-05-01T04:11:40.480Z,5.13
2018-05-01T04:14:08.370Z,9.50
2018-05-01T04:16:36.036Z,7.50
2018-05-01T04:19:03.645Z,8.07
2018-05-01T04:21:31.501Z,6.53
2018-05-01T04:24:00.401Z,7.67
2018-05-01T04:26:28.310Z,6.05
2018-05-01T04:28:55.916Z,6.40
2018-05-01T04:31:23.864Z,7.63
2018-05-01T04:33:52.078Z,8.50
2018-05-01T04:36:19.705Z,8.33
2018-05-01T04:38:47.515Z,11.10
2018-05-01T04:41:15.396Z,7.40
2018-05-01T04:43:43.312Z,11.52
2018-05-01T04:46:10.997Z,5.50
2018-05-01T04:48:38.600Z,6.63
2018-05-01T04:51:06.457Z,12.67
2018-05-01T04:53:34.419Z,6.85
2018-05-01T04:56:02.316Z,7.10
2018-05-01T04:58:29.991Z,4.33
2018-05-01T05:00:57.816Z,7.40
2018-05-01T05:03:25.520Z,7.57
2018-05-01T05:05:53.378Z,10.20
2018-05-01T05:08:21.056Z,7.20
2018-05-01T05:10:48.676Z,7.80
2018-05-01T05:13:16.402Z,6.23
2018-05-01T05:15:44.199Z,5.00
2018-05-01T05:18:11.811Z,8.50
2018-05-01T05:20:39.479Z,6.83
2018-05-01T05:23:07.438Z,8.50
2018-05-01T05:25:35.178Z,6.25
2018-05-01T05:28:02.809Z,6.00
2018-05-01T05:30:30.504Z,10.30
2018-05-01T05:32:58.478Z,6.57
2018-05-01T05:35:26.463Z,6.55
2018-05-01T05:37:54.366Z,7.10
2018-05-01T05:40:22.265Z,8.40
2018-05-01T05:42:49.806Z,11.50
2018-05-01T05:45:17.430Z,4.90
2018-05-01T05:47:45.030Z,5.80
2018-05-01T05:50:13.214Z,6.60
2018-05-01T05:52:42.416Z,6.82
2018-05-01T05:55:11.806Z,6.90
2018-05-01T05:57:41.117Z,5.93
2018-05-01T06:00:10.012Z,8.00
2018-05-01T06:02:37.614Z,3.73
2018-05-01T06:05:05.799Z,9.30
2018-05-01T06:07:33.508Z,5.60
2018-05-01T06:10:01.452Z,5.07
2018-05-01T06:12:29.725Z,5.50
2018-05-01T06:14:58.479Z,6.47
2018-05-01T06:17:26.357Z,6.50
2018-05-01T06:19:54.029Z,5.53
2018-05-01T06:22:21.662Z,4.50
2018-05-01T06:24:49.959Z,6.57
2018-05-01T06:27:17.549Z,2.70
2018-05-01T06:29:46.346Z,2.10
2018-05-01T06:32:14.393Z,3.53
2018-05-01T06:34:42.294Z,2.78
2018-05-01T06:37:09.907Z,1.80
2018-05-01T06:39:37.578Z,5.23
2018-05-01T06:42:05.495Z,1.90
2018-05-01T06:44:33.423Z,1.70
2018-05-01T06:47:01.349Z,1.77
2018-05-01T06:49:28.962Z,2.43
2018-05-01T06:51:56.589Z,1.63
2018-05-01T06:54:24.279Z,3.37
2018-05-01T06:56:51.873Z,3.27
2018-05-01T06:59:19.533Z,1.50
2018-05-01T07:01:47.527Z,2.60
2018-05-01T07:04:15.460Z,1.80
2018-05-01T07:06:43.768Z,2.90
2018-05-01T07:09:11.422Z,2.10
2018-05-01T07:11:39.303Z,2.20
2018-05-01T07:14:07.620Z,1.97
2018-05-01T07:16:35.440Z,1.77
2018-05-01T07:19:03.334Z,1.48
2018-05-01T07:21:31.287Z,1.83
2018-05-01T07:23:58.914Z,2.93
2018-05-01T07:26:26.530Z,0.97
2018-05-01T07:28:54.447Z,0.97
2018-05-01T07:31:22.338Z,0.85
2018-05-01T07:33:50.266Z,0.80
2018-05-01T07:36:17.937Z,1.33
2018-05-01T07:38:45.549Z,2.00
2018-05-01T07:41:13.895Z,2.00
2018-05-01T07:43:41.536Z,2.60
2018-05-01T07:46:09.720Z,1.20
2018-05-01T07:48:37.337Z,1.57
2018-05-01T07:51:04.926Z,4.47
2018-05-01T07:53:33.174Z,4.72
2018-05-01T07:56:00.787Z,2.20
2018-05-01T07:58:29.323Z,3.40
2018-05-01T08:00:58.541Z,4.97
2018-05-01T08:03:27.914Z,3.33
2018-05-01T08:05:57.325Z,3.37
2018-05-01T08:08:25.021Z,4.30
2018-05-01T08:10:52.662Z,3.40
2018-05-01T08:13:20.487Z,7.03
2018-05-01T08:15:48.486Z,8.10
2018-05-01T08:18:16.370Z,3.90
2018-05-01T08:20:43.975Z,5.23
2018-05-01T08:23:11.875Z,4.47
2018-05-01T08:25:39.503Z,2.50
2018-05-01T08:28:07.395Z,3.05
2018-05-01T08:30:34.889Z,3.47
2018-05-01T08:33:02.829Z,6.67
2018-05-01T08:35:30.461Z,2.67
2018-05-01T08:37:58.411Z,8.03
2018-05-01T08:40:26.326Z,7.78
2018-05-01T08:42:54.355Z,7.43
2018-05-01T08:45:22.266Z,4.97
2018-05-01T08:47:50.410Z,4.97
2018-05-01T08:50:18.303Z,3.75
2018-05-01T08:52:45.977Z,3.63
2018-05-01T08:55:13.588Z,5.43
2018-05-01T08:57:41.510Z,4.07
2018-05-01T09:00:09.464Z,3.33
2018-05-01T09:02:37.390Z,2.93
2018-05-01T09:05:05.652Z,2.85
2018-05-01T09:07:33.914Z,5.73
2018-05-01T09:10:01.528Z,3.60
2018-05-01T09:12:29.523Z,7.97
2018-05-01T09:14:57.469Z,2.53
2018-05-01T09:17:25.382Z,2.22
2018-05-01T09:19:53.118Z,3.13
2018-05-01T09:22:20.743Z,2.77
2018-05-01T09:24:48.483Z,4.03
2018-05-01T09:27:16.452Z,2.90
2018-05-01T09:29:44.392Z,2.30
2018-05-01T09:32:12.023Z,2.47
2018-05-01T09:34:39.966Z,1.50
2018-05-01T09:37:07.411Z,1.27
2018-05-01T09:39:35.319Z,2.60
2018-05-01T09:42:03.273Z,4.45
2018-05-01T09:44:30.871Z,3.93
2018-05-01T09:46:58.470Z,1.50
2018-05-01T09:49:26.422Z,5.68
2018-05-01T09:51:54.674Z,2.58
2018-05-01T09:54:23.777Z,6.47
2018-05-01T09:56:52.805Z,2.90
2018-05-01T09:59:21.771Z,3.87
2018-05-01T10:01:50.858Z,6.57
2018-05-01T10:04:20.885Z,3.90
2018-05-01T10:06:50.146Z,3.53
2018-05-01T10:09:19.834Z,2.56
2018-05-01T10:11:50.269Z,4.20
2018-05-01T10:14:21.572Z,6.82
2018-05-01T10:16:52.257Z,3.58
2018-05-01T10:19:23.185Z,2.95
2018-05-01T10:21:54.283Z,2.95
2018-05-01T10:24:25.351Z,3.17
2018-05-01T10:26:56.275Z,4.37
2018-05-01T10:29:27.173Z,2.42
2018-05-01T10:31:57.934Z,5.95
2018-05-01T10:34:28.543Z,5.14
2018-05-01T10:36:58.542Z,6.00
2018-05-01T10:39:29.241Z,5.82
2018-05-01T10:42:00.225Z,3.12
2018-05-01T10:44:31.233Z,3.28
2018-05-01T10:47:02.290Z,2.45
2018-05-01T10:49:33.242Z,6.57
2018-05-01T10:52:04.424Z,4.20
2018-05-01T10:54:35.263Z,5.32
2018-05-01T10:57:05.853Z,5.94
2018-05-01T10:59:36.632Z,4.50
2018-05-01T11:02:07.351Z,3.97
2018-05-01T11:04:38.394Z,3.92
2018-05-01T11:07:10.087Z,3.84
2018-05-01T11:09:40.419Z,3.70
2018-05-01T11:12:10.571Z,3.75
2018-05-01T11:14:41.270Z,7.50
2018-05-01T11:17:12.416Z,6.78
2018-05-01T11:19:43.189Z,6.65
2018-05-01T11:22:14.479Z,6.18
2018-05-01T11:24:45.262Z,5.85
2018-05-01T11:27:16.366Z,3.80
2018-05-01T11:29:47.150Z,5.78
2018-05-01T11:32:17.766Z,7.24
2018-05-01T11:34:48.466Z,2.60
2018-05-01T11:37:19.633Z,4.53
2018-05-01T11:39:50.295Z,2.70
2018-05-01T11:42:20.840Z,6.84
2018-05-01T11:44:51.633Z,4.16
2018-05-01T11:47:22.744Z,4.40
2018-05-01T11:49:53.526Z,3.45
2018-05-01T11:52:24.389Z,5.95
2018-05-01T11:54:54.450Z,3.12
2018-05-01T11:57:25.243Z,3.28
2018-05-01T11:59:56.129Z,3.87
2018-05-01T12:02:27.257Z,2.20
2018-05-01T12:04:58.155Z,2.65
2018-05-01T12:07:29.509Z,1.92
2018-05-01T12:10:00.215Z,2.30
2018-05-01T12:12:31.181Z,2.55
2018-05-01T12:15:01.759Z,2.10
2018-05-01T12:17:33.443Z,3.60
2018-05-01T12:20:03.918Z,1.60
2018-05-01T12:22:35.446Z,2.50
2018-05-01T12:25:07.201Z,1.96
2018-05-01T12:27:37.845Z,3.12
2018-05-01T12:30:08.519Z,2.58
2018-05-01T12:32:39.316Z,2.47
2018-05-01T12:35:09.824Z,3.82
2018-05-01T12:37:40.528Z,4.70
2018-05-01T12:40:11.462Z,4.05
2018-05-01T12:42:42.589Z,3.40
2018-05-01T12:45:14.188Z,3.83
2018-05-01T12:47:44.763Z,2.32
2018-05-01T12:50:15.424Z,3.78
2018-05-01T12:52:46.288Z,4.20
2018-05-01T12:55:17.254Z,2.67
2018-05-01T12:57:48.260Z,4.18
2018-05-01T13:00:19.163Z,2.85
2018-05-01T13:02:50.272Z,3.60
2018-05-01T13:05:21.140Z,2.05
2018-05-01T13:07:52.554Z,2.33
2018-05-01T13:10:23.314Z,6.18
2018-05-01T13:12:54.459Z,3.35
2018-05-01T13:15:24.591Z,2.85
2018-05-01T13:17:55.363Z,4.90
2018-05-01T13:20:26.184Z,3.70
2018-05-01T13:22:58.929Z,2.08
2018-05-01T13:25:28.808Z,3.92
2018-05-01T13:27:58.932Z,4.32
2018-05-01T13:30:29.890Z,2.36
2018-05-01T13:33:00.867Z,2.65
2018-05-01T13:35:31.543Z,5.78
2018-05-01T13:38:02.351Z,2.55
2018-05-01T13:40:33.419Z,2.20
2018-05-01T13:43:03.954Z,3.35
2018-05-01T13:45:35.599Z,3.22
2018-05-01T13:48:06.680Z,4.05
2018-05-01T13:50:36.622Z,2.90
2018-05-01T13:53:07.489Z,2.53
2018-05-01T13:55:38.220Z,4.32
2018-05-01T13:58:09.247Z,4.18
2018-05-01T14:00:40.689Z,3.37
2018-05-01T14:03:11.774Z,5.75
2018-05-01T14:05:42.456Z,4.05
2018-05-01T14:08:13.375Z,3.55
2018-05-01T14:10:44.175Z,5.55
2018-05-01T14:13:15.270Z,6.72
2018-05-01T14:15:46.278Z,6.80
2018-05-01T14:18:17.904Z,9.96
2018-05-01T14:20:48.983Z,9.55
2018-05-01T14:23:21.457Z,6.44
2018-05-01T14:25:50.770Z,3.37
2018-05-01T14:28:20.698Z,6.53
2018-05-01T14:30:51.477Z,5.80
2018-05-01T14:33:21.453Z,9.88
2018-05-01T14:35:52.308Z,37.45
2018-05-01T14:38:23.708Z,18.83
2018-05-01T14:40:55.986Z,15.48
2018-05-01T14:43:25.854Z,10.60
2018-05-01T14:45:56.652Z,5.72
2018-05-01T14:48:27.373Z,3.50
2018-05-01T14:50:58.279Z,8.45
2018-05-01T14:53:29.232Z,6.43
2018-05-01T14:56:00.418Z,6.82
2018-05-01T14:58:31.214Z,8.15
2018-05-01T15:01:02.294Z,8.85
2018-05-01T15:03:33.179Z,5.90
2018-05-01T15:06:04.233Z,8.50
2018-05-01T15:08:35.200Z,4.28
2018-05-01T15:11:06.207Z,4.62
2018-05-01T15:13:37.229Z,5.60
2018-05-01T15:16:08.441Z,9.07
2018-05-01T15:18:39.140Z,3.25
2018-05-01T15:21:10.439Z,6.18
2018-05-01T15:23:41.146Z,6.37
2018-05-01T15:26:12.223Z,10.77
2018-05-01T15:28:42.920Z,8.75
2018-05-01T15:31:13.302Z,5.40
2018-05-01T15:33:45.150Z,3.36
2018-05-01T15:36:16.312Z,4.22
2018-05-01T15:38:47.442Z,4.43
2018-05-01T15:41:18.259Z,5.85
2018-05-01T15:43:49.266Z,3.83
2018-05-01T15:46:20.310Z,9.32
2018-05-01T15:48:51.226Z,5.60
2018-05-01T15:51:22.226Z,3.55
2018-05-01T15:53:53.189Z,3.40
2018-05-01T15:56:24.178Z,3.30
2018-05-01T15:58:55.186Z,3.72
2018-05-01T16:01:26.233Z,3.45
2018-05-01T16:03:57.246Z,3.70
2018-05-01T16:06:28.306Z,5.40
2018-05-01T16:08:59.127Z,4.05
2018-05-01T16:11:30.279Z,4.15
2018-05-01T16:14:01.187Z,6.95
2018-05-01T16:16:32.236Z,5.35
2018-05-01T16:19:03.144Z,4.62
2018-05-01T16:21:34.516Z,4.32
2018-05-01T16:24:05.405Z,3.65
2018-05-01T16:26:36.253Z,5.05
2018-05-01T16:29:07.200Z,6.07
2018-05-01T16:31:38.030Z,5.75
2018-05-01T16:34:09.033Z,2.97
2018-05-01T16:36:39.755Z,3.67
2018-05-01T16:39:10.445Z,3.28
2018-05-01T16:41:41.254Z,4.45
2018-05-01T16:44:12.203Z,6.03
2018-05-01T16:46:43.468Z,6.57
2018-05-01T16:49:14.252Z,4.40
2018-05-01T16:51:45.191Z,5.35
2018-05-01T16:54:15.752Z,3.90
2018-05-01T16:56:46.457Z,4.68
2018-05-01T16:59:17.357Z,4.60
2018-05-01T17:01:48.269Z,4.05
2018-05-01T17:04:19.186Z,6.85
2018-05-01T17:06:50.292Z,8.70
2018-05-01T17:09:21.074Z,5.00
2018-05-01T17:11:52.250Z,6.15
2018-05-01T17:14:23.112Z,4.82
2018-05-01T17:16:54.241Z,4.45
2018-05-01T17:19:24.770Z,3.97
2018-05-01T17:21:55.627Z,4.96
2018-05-01T17:24:26.382Z,5.03
2018-05-01T17:26:57.144Z,4.30
2018-05-01T17:29:28.218Z,6.03
2018-05-01T17:31:59.931Z,3.66
2018-05-01T17:34:30.720Z,5.20
2018-05-01T17:37:01.457Z,5.43
2018-05-01T17:39:32.270Z,100.65
2018-05-01T17:42:03.899Z,56.42
2018-05-01T17:44:34.681Z,43.44
2018-05-01T17:47:05.508Z,327.00
2018-05-01T17:49:36.293Z,365.15
2018-05-01T17:52:07.327Z,227.90
2018-05-01T17:54:38.329Z,378.73
2018-05-01T18:00:00.871Z,674.87
2018-05-01T18:02:29.870Z,228.50
2018-05-01T18:04:58.882Z,139.00
2018-05-01T18:07:27.977Z,74.25
2018-05-01T18:09:57.256Z,65.47
2018-05-01T18:12:26.233Z,81.33
2018-05-01T18:14:56.001Z,76.93
2018-05-01T18:17:25.554Z,45.22
2018-05-01T18:19:54.555Z,45.73
2018-05-01T18:22:23.585Z,31.37
2018-05-01T18:24:52.555Z,36.57
2018-05-01T18:27:21.538Z,49.93
2018-05-01T18:29:50.546Z,32.00
2018-05-01T18:32:20.632Z,19.70
2018-05-01T18:34:51.321Z,27.13
2018-05-01T18:37:21.985Z,19.64
2018-05-01T18:39:52.698Z,15.88
2018-05-01T18:42:23.410Z,16.08
2018-05-01T18:44:54.495Z,17.95
2018-05-01T18:47:25.996Z,26.77
2018-05-01T18:49:55.806Z,28.83
2018-05-01T18:52:28.269Z,21.25
2018-05-01T18:54:57.911Z,21.92
2018-05-01T18:57:28.473Z,20.36
2018-05-01T18:59:59.271Z,13.73
2018-05-01T19:02:30.157Z,12.45
2018-05-01T19:05:01.364Z,15.40
2018-05-01T19:07:32.322Z,15.18
2018-05-01T19:10:11.934Z,16.68
2018-05-01T19:12:41.426Z,20.35
2018-05-01T19:15:10.879Z,21.67
2018-05-01T19:17:41.244Z,15.87
2018-05-01T19:20:10.114Z,13.77
2018-05-01T19:22:39.871Z,15.65
2018-05-01T19:25:10.823Z,15.95
2018-05-01T19:27:41.146Z,17.87
2018-05-01T19:30:12.230Z,19.56
2018-05-01T19:32:44.931Z,17.17
2018-05-01T19:35:14.339Z,25.35
2018-05-01T19:37:44.971Z,16.42
2018-05-01T19:40:16.025Z,19.46
2018-05-01T19:42:47.115Z,14.16
2018-05-01T19:45:18.797Z,15.50
2018-05-01T19:47:49.046Z,20.85
2018-05-01T19:50:20.211Z,15.02
2018-05-01T19:52:51.130Z,12.04
2018-05-01T19:55:21.969Z,11.76
2018-05-01T19:57:52.335Z,14.38
2018-05-01T20:00:23.900Z,14.58
2018-05-01T20:02:54.876Z,10.58
2018-05-01T20:05:25.562Z,14.63
2018-05-01T20:07:55.445Z,12.65
2018-05-01T20:10:27.652Z,14.90
2018-05-01T20:12:56.868Z,19.63
2018-05-01T20:15:28.015Z,12.80
2018-05-01T20:17:59.201Z,16.27
2018-05-01T20:20:30.535Z,12.84
2018-05-01T20:23:01.572Z,16.20
2018-05-01T20:25:32.584Z,18.54
2018-05-01T20:28:03.277Z,17.58
2018-05-01T20:30:34.606Z,24.86
2018-05-01T20:33:05.152Z,20.20
2018-05-01T20:35:35.883Z,21.23
2018-05-01T20:38:06.890Z,22.67
2018-05-01T20:40:38.007Z,24.40
2018-05-01T20:43:08.976Z,32.32
2018-05-01T20:45:40.528Z,31.23
2018-05-01T20:48:11.540Z,34.56
2018-05-01T20:50:41.122Z,31.65
2018-05-01T20:53:12.223Z,32.53
2018-05-01T20:55:43.821Z,28.26
2018-05-01T20:58:14.381Z,28.42
2018-05-01T21:00:44.091Z,29.20
2018-05-01T21:03:15.071Z,26.15
2018-05-01T21:05:46.196Z,28.95
2018-05-01T21:08:15.320Z,23.50
2018-05-01T21:10:46.333Z,20.85
2018-05-01T21:13:16.958Z,24.43
2018-05-01T21:15:47.869Z,22.95
2018-05-01T21:18:19.266Z,21.85
2018-05-01T21:20:50.005Z,18.52
2018-05-01T21:23:21.305Z,18.00
2018-05-01T21:25:52.344Z,19.05
2018-05-01T21:28:23.396Z,18.40
2018-05-01T21:30:54.241Z,16.15
2018-05-01T21:33:25.375Z,16.85
2018-05-01T21:35:56.430Z,14.25
2018-05-01T21:38:27.406Z,11.95
2018-05-01T21:40:58.078Z,14.82
2018-05-01T21:43:29.687Z,18.12
2018-05-01T21:46:01.012Z,15.27
2018-05-01T21:48:31.805Z,11.15
2018-05-01T21:51:01.764Z,12.75
2018-05-01T21:53:32.534Z,11.45
2018-05-01T21:56:03.234Z,10.30
2018-05-01T21:58:34.436Z,10.95
2018-05-01T22:01:05.163Z,10.50
2018-05-01T22:03:35.836Z,10.18
2018-05-01T22:06:06.522Z,7.80
2018-05-01T22:08:37.230Z,8.27
2018-05-01T22:11:08.167Z,7.60
2018-05-01T22:13:39.177Z,7.75
2018-05-01T22:16:10.198Z,7.43
2018-05-01T22:18:41.157Z,7.90
2018-05-01T22:21:12.146Z,9.25
2018-05-01T22:23:43.245Z,9.82
2018-05-01T22:26:14.133Z,8.50
2018-05-01T22:28:45.273Z,6.57
2018-05-01T22:31:16.130Z,7.68
2018-05-01T22:33:46.782Z,8.68
2018-05-01T22:36:17.290Z,5.78
2018-05-01T22:38:48.313Z,8.48
2018-05-01T22:41:18.704Z,4.52
2018-05-01T22:43:49.443Z,6.97
2018-05-01T22:46:20.126Z,7.95
2018-05-01T22:48:51.195Z,4.53
2018-05-01T22:51:22.414Z,5.57
2018-05-01T22:53:53.207Z,4.68
2018-05-01T22:56:24.206Z,5.53
2018-05-01T22:58:55.200Z,3.65
2018-05-01T23:01:26.519Z,3.60
2018-05-01T23:03:57.233Z,3.85
2018-05-01T23:06:28.079Z,3.42
2018-05-01T23:08:59.165Z,6.90
2018-05-01T23:11:30.130Z,3.55
2018-05-01T23:14:01.055Z,4.10
2018-05-01T23:16:31.653Z,2.45
2018-05-01T23:19:02.374Z,2.75
2018-05-01T23:21:33.205Z,5.10
2018-05-01T23:24:03.738Z,3.44
2018-05-01T23:26:34.370Z,2.97
2018-05-01T23:29:05.177Z,2.37
2018-05-01T23:31:35.816Z,2.03
2018-05-01T23:34:06.253Z,3.15
2018-05-01T23:36:37.105Z,4.35
2018-05-01T23:39:08.481Z,6.70
2018-05-01T23:41:39.225Z,2.30
2018-05-01T23:44:10.222Z,5.22
2018-05-01T23:46:41.167Z,3.85
2018-05-01T23:49:11.990Z,2.66
2018-05-01T23:51:42.654Z,4.12
2018-05-01T23:54:12.583Z,2.83
2018-05-01T23:56:43.211Z,4.85
2018-05-01T23:59:14.193Z,3.12
